sensor_id;sensor_type;location;lat;lon;timestamp;P1;durP1;ratioP1;P2;durP2;ratioP2
14100;SDS011;7127;49.372;8.166;2023-08-06T00:00:32;2.23;;;1.50;;
14100;SDS011;7127;49.372;8.166;2023-08-06T00:02:58;3.20;;;1.30;;
14100;SDS011;7127;49.372;8.166;2023-08-06T00:05:25;1.17;;;1.07;;
14100;SDS011;7127;49.372;8.166;2023-08-06T00:07:52;1.43;;;1.27;;
14100;SDS011;7127;49.372;8.166;2023-08-06T00:10:19;1.30;;;1.10;;
14100;SDS011;7127;49.372;8.166;2023-08-06T00:12:46;1.20;;;1.10;;
14100;SDS011;7127;49.372;8.166;2023-08-06T00:15:15;1.37;;;1.27;;
14100;SDS011;7127;49.372;8.166;2023-08-06T00:17:41;1.43;;;1.33;;
14100;SDS011;7127;49.372;8.166;2023-08-06T00:20:08;1.30;;;1.20;;
14100;SDS011;7127;49.372;8.166;2023-08-06T00:22:36;1.20;;;1.10;;
14100;SDS011;7127;49.372;8.166;2023-08-06T00:25:04;2.50;;;1.57;;
14100;SDS011;7127;49.372;8.166;2023-08-06T00:27:31;1.37;;;1.27;;
14100;SDS011;7127;49.372;8.166;2023-08-06T00:29:58;1.23;;;1.13;;
14100;SDS011;7127;49.372;8.166;2023-08-06T00:32:26;1.20;;;1.10;;
14100;SDS011;7127;49.372;8.166;2023-08-06T00:34:54;1.10;;;1.00;;
14100;SDS011;7127;49.372;8.166;2023-08-06T00:37:21;1.20;;;1.10;;
14100;SDS011;7127;49.372;8.166;2023-08-06T00:39:48;1.47;;;1.30;;
14100;SDS011;7127;49.372;8.166;2023-08-06T00:42:15;1.47;;;1.37;;
14100;SDS011;7127;49.372;8.166;2023-08-06T00:44:45;1.80;;;1.30;;
14100;SDS011;7127;49.372;8.166;2023-08-06T00:47:12;1.30;;;1.20;;
14100;SDS011;7127;49.372;8.166;2023-08-06T00:49:41;1.37;;;1.27;;
14100;SDS011;7127;49.372;8.166;2023-08-06T00:52:08;1.53;;;1.37;;
14100;SDS011;7127;49.372;8.166;2023-08-06T00:54:36;1.23;;;1.13;;
14100;SDS011;7127;49.372;8.166;2023-08-06T00:57:03;1.73;;;1.17;;
14100;SDS011;7127;49.372;8.166;2023-08-06T00:59:31;1.27;;;1.17;;
14100;SDS011;7127;49.372;8.166;2023-08-06T01:01:58;1.40;;;1.30;;
14100;SDS011;7127;49.372;8.166;2023-08-06T01:04:25;2.53;;;1.20;;
14100;SDS011;7127;49.372;8.166;2023-08-06T01:06:56;1.77;;;1.37;;
14100;SDS011;7127;49.372;8.166;2023-08-06T01:09:32;1.60;;;1.30;;
14100;SDS011;7127;49.372;8.166;2023-08-06T01:12:09;1.50;;;1.40;;
14100;SDS011;7127;49.372;8.166;2023-08-06T01:14:46;1.30;;;1.20;;
14100;SDS011;7127;49.372;8.166;2023-08-06T01:17:18;2.07;;;1.20;;
14100;SDS011;7127;49.372;8.166;2023-08-06T01:19:46;1.23;;;1.13;;
14100;SDS011;7127;49.372;8.166;2023-08-06T01:22:14;1.60;;;1.37;;
14100;SDS011;7127;49.372;8.166;2023-08-06T01:24:41;1.50;;;1.40;;
14100;SDS011;7127;49.372;8.166;2023-08-06T01:27:14;1.13;;;1.03;;
14100;SDS011;7127;49.372;8.166;2023-08-06T01:29:49;1.83;;;1.20;;
14100;SDS011;7127;49.372;8.166;2023-08-06T01:32:23;1.30;;;1.20;;
14100;SDS011;7127;49.372;8.166;2023-08-06T01:34:52;1.30;;;1.20;;
14100;SDS011;7127;49.372;8.166;2023-08-06T01:37:21;1.40;;;1.30;;
14100;SDS011;7127;49.372;8.166;2023-08-06T01:39:49;1.10;;;1.00;;
14100;SDS011;7127;49.372;8.166;2023-08-06T01:42:16;0.90;;;0.90;;
14100;SDS011;7127;49.372;8.166;2023-08-06T01:44:42;0.93;;;0.93;;
14100;SDS011;7127;49.372;8.166;2023-08-06T01:47:09;1.37;;;1.00;;
14100;SDS011;7127;49.372;8.166;2023-08-06T01:49:36;1.27;;;1.17;;
14100;SDS011;7127;49.372;8.166;2023-08-06T01:52:03;1.30;;;1.10;;
14100;SDS011;7127;49.372;8.166;2023-08-06T01:54:32;1.10;;;1.00;;
14100;SDS011;7127;49.372;8.166;2023-08-06T01:56:59;1.27;;;1.17;;
14100;SDS011;7127;49.372;8.166;2023-08-06T01:59:25;1.43;;;1.00;;
14100;SDS011;7127;49.372;8.166;2023-08-06T02:01:52;0.90;;;0.90;;
14100;SDS011;7127;49.372;8.166;2023-08-06T02:04:19;1.23;;;1.13;;
14100;SDS011;7127;49.372;8.166;2023-08-06T02:06:46;3.03;;;1.43;;
14100;SDS011;7127;49.372;8.166;2023-08-06T02:09:13;1.53;;;1.27;;
14100;SDS011;7127;49.372;8.166;2023-08-06T02:11:41;2.00;;;1.30;;
14100;SDS011;7127;49.372;8.166;2023-08-06T02:14:07;1.30;;;1.20;;
14100;SDS011;7127;49.372;8.166;2023-08-06T02:16:34;1.30;;;1.20;;
14100;SDS011;7127;49.372;8.166;2023-08-06T02:19:01;1.20;;;1.10;;
14100;SDS011;7127;49.372;8.166;2023-08-06T02:21:28;1.47;;;1.20;;
14100;SDS011;7127;49.372;8.166;2023-08-06T02:23:54;1.50;;;0.93;;
14100;SDS011;7127;49.372;8.166;2023-08-06T02:26:21;1.10;;;1.00;;
14100;SDS011;7127;49.372;8.166;2023-08-06T02:28:49;2.33;;;1.00;;
14100;SDS011;7127;49.372;8.166;2023-08-06T02:31:16;2.70;;;1.00;;
14100;SDS011;7127;49.372;8.166;2023-08-06T02:33:43;1.20;;;1.00;;
14100;SDS011;7127;49.372;8.166;2023-08-06T02:36:10;0.97;;;0.87;;
14100;SDS011;7127;49.372;8.166;2023-08-06T02:38:36;1.20;;;0.90;;
14100;SDS011;7127;49.372;8.166;2023-08-06T02:41:03;2.03;;;1.10;;
14100;SDS011;7127;49.372;8.166;2023-08-06T02:43:30;0.87;;;0.70;;
14100;SDS011;7127;49.372;8.166;2023-08-06T02:45:59;1.30;;;0.80;;
14100;SDS011;7127;49.372;8.166;2023-08-06T02:48:26;1.33;;;0.70;;
14100;SDS011;7127;49.372;8.166;2023-08-06T02:50:53;1.30;;;0.90;;
14100;SDS011;7127;49.372;8.166;2023-08-06T02:53:23;1.10;;;0.80;;
14100;SDS011;7127;49.372;8.166;2023-08-06T02:55:50;0.90;;;0.80;;
14100;SDS011;7127;49.372;8.166;2023-08-06T02:58:17;0.73;;;0.70;;
14100;SDS011;7127;49.372;8.166;2023-08-06T03:00:47;1.27;;;0.80;;
14100;SDS011;7127;49.372;8.166;2023-08-06T03:03:27;2.00;;;0.83;;
14100;SDS011;7127;49.372;8.166;2023-08-06T03:05:55;1.07;;;0.90;;
14100;SDS011;7127;49.372;8.166;2023-08-06T03:08:22;1.00;;;0.80;;
14100;SDS011;7127;49.372;8.166;2023-08-06T03:10:49;0.60;;;0.60;;
14100;SDS011;7127;49.372;8.166;2023-08-06T03:13:16;1.03;;;0.67;;
14100;SDS011;7127;49.372;8.166;2023-08-06T03:15:43;1.03;;;0.67;;
14100;SDS011;7127;49.372;8.166;2023-08-06T03:18:18;0.47;;;0.43;;
14100;SDS011;7127;49.372;8.166;2023-08-06T03:20:45;0.40;;;0.30;;
14100;SDS011;7127;49.372;8.166;2023-08-06T03:23:12;0.40;;;0.30;;
14100;SDS011;7127;49.372;8.166;2023-08-06T03:25:39;0.40;;;0.40;;
14100;SDS011;7127;49.372;8.166;2023-08-06T03:28:05;0.40;;;0.30;;
14100;SDS011;7127;49.372;8.166;2023-08-06T03:30:32;0.80;;;0.30;;
14100;SDS011;7127;49.372;8.166;2023-08-06T03:32:59;0.30;;;0.30;;
14100;SDS011;7127;49.372;8.166;2023-08-06T03:35:27;0.43;;;0.30;;
14100;SDS011;7127;49.372;8.166;2023-08-06T03:37:54;0.30;;;0.30;;
14100;SDS011;7127;49.372;8.166;2023-08-06T03:40:21;0.47;;;0.47;;
14100;SDS011;7127;49.372;8.166;2023-08-06T03:42:48;0.30;;;0.30;;
14100;SDS011;7127;49.372;8.166;2023-08-06T03:45:14;1.67;;;0.50;;
14100;SDS011;7127;49.372;8.166;2023-08-06T03:47:41;0.50;;;0.50;;
14100;SDS011;7127;49.372;8.166;2023-08-06T03:50:08;1.50;;;0.27;;
14100;SDS011;7127;49.372;8.166;2023-08-06T03:52:36;0.70;;;0.50;;
14100;SDS011;7127;49.372;8.166;2023-08-06T03:55:03;0.57;;;0.30;;
14100;SDS011;7127;49.372;8.166;2023-08-06T03:57:30;1.47;;;0.37;;
14100;SDS011;7127;49.372;8.166;2023-08-06T03:59:57;0.30;;;0.20;;
14100;SDS011;7127;49.372;8.166;2023-08-06T04:02:24;0.60;;;0.27;;
14100;SDS011;7127;49.372;8.166;2023-08-06T04:04:51;0.10;;;0.10;;
14100;SDS011;7127;49.372;8.166;2023-08-06T04:07:18;0.70;;;0.40;;
14100;SDS011;7127;49.372;8.166;2023-08-06T04:09:56;0.10;;;0.10;;
14100;SDS011;7127;49.372;8.166;2023-08-06T04:12:24;0.70;;;0.40;;
14100;SDS011;7127;49.372;8.166;2023-08-06T04:14:51;0.20;;;0.20;;
14100;SDS011;7127;49.372;8.166;2023-08-06T04:17:18;1.37;;;0.43;;
14100;SDS011;7127;49.372;8.166;2023-08-06T04:19:46;0.77;;;0.23;;
14100;SDS011;7127;49.372;8.166;2023-08-06T04:22:14;0.70;;;0.40;;
14100;SDS011;7127;49.372;8.166;2023-08-06T04:24:41;0.87;;;0.47;;
14100;SDS011;7127;49.372;8.166;2023-08-06T04:27:09;0.33;;;0.30;;
14100;SDS011;7127;49.372;8.166;2023-08-06T04:29:36;0.40;;;0.30;;
14100;SDS011;7127;49.372;8.166;2023-08-06T04:32:04;0.40;;;0.23;;
14100;SDS011;7127;49.372;8.166;2023-08-06T04:34:32;0.03;;;0.00;;
14100;SDS011;7127;49.372;8.166;2023-08-06T04:36:59;0.20;;;0.20;;
14100;SDS011;7127;49.372;8.166;2023-08-06T04:39:26;0.17;;;0.17;;
14100;SDS011;7127;49.372;8.166;2023-08-06T04:41:54;0.37;;;0.20;;
14100;SDS011;7127;49.372;8.166;2023-08-06T04:44:22;0.20;;;0.10;;
14100;SDS011;7127;49.372;8.166;2023-08-06T04:46:49;0.00;;;0.00;;
14100;SDS011;7127;49.372;8.166;2023-08-06T04:49:16;0.23;;;0.13;;
14100;SDS011;7127;49.372;8.166;2023-08-06T04:51:43;0.20;;;0.10;;
14100;SDS011;7127;49.372;8.166;2023-08-06T04:54:10;0.20;;;0.10;;
14100;SDS011;7127;49.372;8.166;2023-08-06T04:56:37;0.17;;;0.17;;
14100;SDS011;7127;49.372;8.166;2023-08-06T04:59:04;0.30;;;0.20;;
14100;SDS011;7127;49.372;8.166;2023-08-06T05:01:32;0.10;;;0.10;;
14100;SDS011;7127;49.372;8.166;2023-08-06T05:03:59;0.20;;;0.20;;
14100;SDS011;7127;49.372;8.166;2023-08-06T05:06:26;0.07;;;0.07;;
14100;SDS011;7127;49.372;8.166;2023-08-06T05:08:52;0.20;;;0.20;;
14100;SDS011;7127;49.372;8.166;2023-08-06T05:11:19;0.20;;;0.20;;
14100;SDS011;7127;49.372;8.166;2023-08-06T05:13:46;0.10;;;0.10;;
14100;SDS011;7127;49.372;8.166;2023-08-06T05:16:13;0.10;;;0.10;;
14100;SDS011;7127;49.372;8.166;2023-08-06T05:18:41;0.17;;;0.17;;
14100;SDS011;7127;49.372;8.166;2023-08-06T05:21:08;0.27;;;0.17;;
14100;SDS011;7127;49.372;8.166;2023-08-06T05:23:34;0.20;;;0.10;;
14100;SDS011;7127;49.372;8.166;2023-08-06T05:26:01;0.10;;;0.10;;
14100;SDS011;7127;49.372;8.166;2023-08-06T05:28:28;0.07;;;0.07;;
14100;SDS011;7127;49.372;8.166;2023-08-06T05:30:55;0.67;;;0.20;;
14100;SDS011;7127;49.372;8.166;2023-08-06T05:33:21;0.20;;;0.20;;
14100;SDS011;7127;49.372;8.166;2023-08-06T05:35:50;0.00;;;0.00;;
14100;SDS011;7127;49.372;8.166;2023-08-06T05:38:17;0.53;;;0.20;;
14100;SDS011;7127;49.372;8.166;2023-08-06T05:40:43;0.10;;;0.10;;
14100;SDS011;7127;49.372;8.166;2023-08-06T05:43:10;0.07;;;0.07;;
14100;SDS011;7127;49.372;8.166;2023-08-06T05:45:37;0.00;;;0.00;;
14100;SDS011;7127;49.372;8.166;2023-08-06T05:48:04;0.57;;;0.17;;
14100;SDS011;7127;49.372;8.166;2023-08-06T05:50:31;0.30;;;0.10;;
14100;SDS011;7127;49.372;8.166;2023-08-06T05:52:59;0.30;;;0.10;;
14100;SDS011;7127;49.372;8.166;2023-08-06T05:55:26;0.30;;;0.20;;
14100;SDS011;7127;49.372;8.166;2023-08-06T05:57:52;0.30;;;0.20;;
14100;SDS011;7127;49.372;8.166;2023-08-06T06:00:21;0.40;;;0.20;;
14100;SDS011;7127;49.372;8.166;2023-08-06T06:02:48;0.10;;;0.10;;
14100;SDS011;7127;49.372;8.166;2023-08-06T06:05:15;0.40;;;0.10;;
14100;SDS011;7127;49.372;8.166;2023-08-06T06:07:42;0.10;;;0.10;;
14100;SDS011;7127;49.372;8.166;2023-08-06T06:10:10;0.10;;;0.10;;
14100;SDS011;7127;49.372;8.166;2023-08-06T06:12:37;0.30;;;0.10;;
14100;SDS011;7127;49.372;8.166;2023-08-06T06:15:05;0.00;;;0.00;;
14100;SDS011;7127;49.372;8.166;2023-08-06T06:17:33;0.17;;;0.10;;
14100;SDS011;7127;49.372;8.166;2023-08-06T06:20:00;0.10;;;0.10;;
14100;SDS011;7127;49.372;8.166;2023-08-06T06:22:29;0.17;;;0.17;;
14100;SDS011;7127;49.372;8.166;2023-08-06T06:24:55;0.57;;;0.10;;
14100;SDS011;7127;49.372;8.166;2023-08-06T06:27:24;0.00;;;0.00;;
14100;SDS011;7127;49.372;8.166;2023-08-06T06:29:51;0.03;;;0.03;;
14100;SDS011;7127;49.372;8.166;2023-08-06T06:32:19;0.10;;;0.10;;
14100;SDS011;7127;49.372;8.166;2023-08-06T06:34:46;0.10;;;0.10;;
14100;SDS011;7127;49.372;8.166;2023-08-06T06:37:13;0.10;;;0.00;;
14100;SDS011;7127;49.372;8.166;2023-08-06T06:39:40;0.07;;;0.00;;
14100;SDS011;7127;49.372;8.166;2023-08-06T06:42:07;0.20;;;0.10;;
14100;SDS011;7127;49.372;8.166;2023-08-06T06:44:35;0.00;;;0.00;;
14100;SDS011;7127;49.372;8.166;2023-08-06T06:47:02;0.00;;;0.00;;
14100;SDS011;7127;49.372;8.166;2023-08-06T06:49:29;0.20;;;0.20;;
14100;SDS011;7127;49.372;8.166;2023-08-06T06:51:55;0.03;;;0.00;;
14100;SDS011;7127;49.372;8.166;2023-08-06T06:54:22;1.50;;;0.10;;
14100;SDS011;7127;49.372;8.166;2023-08-06T06:56:49;0.00;;;0.00;;
14100;SDS011;7127;49.372;8.166;2023-08-06T06:59:16;0.10;;;0.00;;
14100;SDS011;7127;49.372;8.166;2023-08-06T07:01:44;0.20;;;0.00;;
14100;SDS011;7127;49.372;8.166;2023-08-06T07:04:11;0.00;;;0.00;;
14100;SDS011;7127;49.372;8.166;2023-08-06T07:06:38;0.00;;;0.00;;
14100;SDS011;7127;49.372;8.166;2023-08-06T07:09:05;0.50;;;0.07;;
14100;SDS011;7127;49.372;8.166;2023-08-06T07:11:32;0.67;;;0.20;;
14100;SDS011;7127;49.372;8.166;2023-08-06T07:13:58;0.00;;;0.00;;
14100;SDS011;7127;49.372;8.166;2023-08-06T07:16:25;0.40;;;0.10;;
14100;SDS011;7127;49.372;8.166;2023-08-06T07:18:54;0.07;;;0.00;;
14100;SDS011;7127;49.372;8.166;2023-08-06T07:21:21;0.10;;;0.00;;
14100;SDS011;7127;49.372;8.166;2023-08-06T07:23:48;0.10;;;0.10;;
14100;SDS011;7127;49.372;8.166;2023-08-06T07:26:15;0.40;;;0.20;;
14100;SDS011;7127;49.372;8.166;2023-08-06T07:28:42;0.73;;;0.43;;
14100;SDS011;7127;49.372;8.166;2023-08-06T07:31:09;0.20;;;0.20;;
14100;SDS011;7127;49.372;8.166;2023-08-06T07:33:36;0.17;;;0.17;;
14100;SDS011;7127;49.372;8.166;2023-08-06T07:36:14;0.20;;;0.10;;
14100;SDS011;7127;49.372;8.166;2023-08-06T07:38:41;0.20;;;0.20;;
14100;SDS011;7127;49.372;8.166;2023-08-06T07:41:08;0.10;;;0.10;;
14100;SDS011;7127;49.372;8.166;2023-08-06T07:43:35;0.17;;;0.17;;
14100;SDS011;7127;49.372;8.166;2023-08-06T07:46:02;0.10;;;0.10;;
14100;SDS011;7127;49.372;8.166;2023-08-06T07:48:29;0.30;;;0.30;;
14100;SDS011;7127;49.372;8.166;2023-08-06T07:50:56;0.10;;;0.10;;
14100;SDS011;7127;49.372;8.166;2023-08-06T07:53:25;0.00;;;0.00;;
14100;SDS011;7127;49.372;8.166;2023-08-06T07:55:54;0.10;;;0.10;;
14100;SDS011;7127;49.372;8.166;2023-08-06T07:58:21;0.00;;;0.00;;
14100;SDS011;7127;49.372;8.166;2023-08-06T08:00:49;0.10;;;0.10;;
14100;SDS011;7127;49.372;8.166;2023-08-06T08:03:16;0.00;;;0.00;;
14100;SDS011;7127;49.372;8.166;2023-08-06T08:05:44;0.00;;;0.00;;
14100;SDS011;7127;49.372;8.166;2023-08-06T08:08:11;0.10;;;0.10;;
14100;SDS011;7127;49.372;8.166;2023-08-06T08:10:39;0.17;;;0.17;;
14100;SDS011;7127;49.372;8.166;2023-08-06T08:13:06;0.13;;;0.10;;
14100;SDS011;7127;49.372;8.166;2023-08-06T08:15:33;0.30;;;0.20;;
14100;SDS011;7127;49.372;8.166;2023-08-06T08:18:00;1.50;;;0.20;;
14100;SDS011;7127;49.372;8.166;2023-08-06T08:20:27;0.40;;;0.20;;
14100;SDS011;7127;49.372;8.166;2023-08-06T08:22:57;0.10;;;0.10;;
14100;SDS011;7127;49.372;8.166;2023-08-06T08:25:25;0.10;;;0.10;;
14100;SDS011;7127;49.372;8.166;2023-08-06T08:27:54;0.20;;;0.10;;
14100;SDS011;7127;49.372;8.166;2023-08-06T08:30:21;0.23;;;0.10;;
14100;SDS011;7127;49.372;8.166;2023-08-06T08:32:49;0.10;;;0.10;;
14100;SDS011;7127;49.372;8.166;2023-08-06T08:35:16;0.10;;;0.10;;
14100;SDS011;7127;49.372;8.166;2023-08-06T08:37:43;0.30;;;0.10;;
14100;SDS011;7127;49.372;8.166;2023-08-06T08:40:10;0.63;;;0.10;;
14100;SDS011;7127;49.372;8.166;2023-08-06T08:42:37;0.77;;;0.00;;
14100;SDS011;7127;49.372;8.166;2023-08-06T08:45:06;0.00;;;0.00;;
14100;SDS011;7127;49.372;8.166;2023-08-06T08:47:39;0.17;;;0.17;;
14100;SDS011;7127;49.372;8.166;2023-08-06T08:50:07;0.00;;;0.00;;
14100;SDS011;7127;49.372;8.166;2023-08-06T08:52:35;0.10;;;0.10;;
14100;SDS011;7127;49.372;8.166;2023-08-06T08:55:03;0.10;;;0.10;;
14100;SDS011;7127;49.372;8.166;2023-08-06T08:57:31;0.13;;;0.13;;
14100;SDS011;7127;49.372;8.166;2023-08-06T08:59:58;0.03;;;0.03;;
14100;SDS011;7127;49.372;8.166;2023-08-06T09:02:28;0.10;;;0.10;;
14100;SDS011;7127;49.372;8.166;2023-08-06T09:04:55;0.00;;;0.00;;
14100;SDS011;7127;49.372;8.166;2023-08-06T09:07:24;0.20;;;0.20;;
14100;SDS011;7127;49.372;8.166;2023-08-06T09:09:52;0.03;;;0.03;;
14100;SDS011;7127;49.372;8.166;2023-08-06T09:12:20;0.10;;;0.10;;
14100;SDS011;7127;49.372;8.166;2023-08-06T09:14:48;0.03;;;0.03;;
14100;SDS011;7127;49.372;8.166;2023-08-06T09:17:15;0.20;;;0.20;;
14100;SDS011;7127;49.372;8.166;2023-08-06T09:19:46;0.20;;;0.20;;
14100;SDS011;7127;49.372;8.166;2023-08-06T09:22:14;0.10;;;0.10;;
14100;SDS011;7127;49.372;8.166;2023-08-06T09:24:41;0.10;;;0.10;;
14100;SDS011;7127;49.372;8.166;2023-08-06T09:27:12;0.10;;;0.10;;
14100;SDS011;7127;49.372;8.166;2023-08-06T09:29:40;0.20;;;0.20;;
14100;SDS011;7127;49.372;8.166;2023-08-06T09:32:08;0.40;;;0.10;;
14100;SDS011;7127;49.372;8.166;2023-08-06T09:34:35;0.83;;;0.10;;
14100;SDS011;7127;49.372;8.166;2023-08-06T09:37:07;0.17;;;0.10;;
14100;SDS011;7127;49.372;8.166;2023-08-06T09:39:35;0.10;;;0.10;;
14100;SDS011;7127;49.372;8.166;2023-08-06T09:42:04;0.00;;;0.00;;
14100;SDS011;7127;49.372;8.166;2023-08-06T09:44:32;0.30;;;0.00;;
14100;SDS011;7127;49.372;8.166;2023-08-06T09:47:00;0.23;;;0.10;;
14100;SDS011;7127;49.372;8.166;2023-08-06T09:49:41;0.00;;;0.00;;
14100;SDS011;7127;49.372;8.166;2023-08-06T09:52:12;0.00;;;0.00;;
14100;SDS011;7127;49.372;8.166;2023-08-06T09:54:40;0.10;;;0.10;;
14100;SDS011;7127;49.372;8.166;2023-08-06T09:57:09;0.20;;;0.10;;
14100;SDS011;7127;49.372;8.166;2023-08-06T09:59:38;0.10;;;0.00;;
14100;SDS011;7127;49.372;8.166;2023-08-06T10:02:10;0.10;;;0.10;;
14100;SDS011;7127;49.372;8.166;2023-08-06T10:04:39;0.10;;;0.10;;
14100;SDS011;7127;49.372;8.166;2023-08-06T10:07:07;0.10;;;0.10;;
14100;SDS011;7127;49.372;8.166;2023-08-06T10:09:36;0.10;;;0.10;;
14100;SDS011;7127;49.372;8.166;2023-08-06T10:12:04;0.10;;;0.00;;
14100;SDS011;7127;49.372;8.166;2023-08-06T10:14:32;0.10;;;0.10;;
14100;SDS011;7127;49.372;8.166;2023-08-06T10:17:01;0.73;;;0.20;;
14100;SDS011;7127;49.372;8.166;2023-08-06T10:19:29;0.40;;;0.20;;
14100;SDS011;7127;49.372;8.166;2023-08-06T10:22:09;0.10;;;0.10;;
14100;SDS011;7127;49.372;8.166;2023-08-06T10:24:53;0.00;;;0.00;;
14100;SDS011;7127;49.372;8.166;2023-08-06T10:27:21;0.50;;;0.30;;
14100;SDS011;7127;49.372;8.166;2023-08-06T10:29:50;0.17;;;0.17;;
14100;SDS011;7127;49.372;8.166;2023-08-06T10:32:17;1.50;;;0.20;;
14100;SDS011;7127;49.372;8.166;2023-08-06T10:34:54;0.17;;;0.10;;
14100;SDS011;7127;49.372;8.166;2023-08-06T10:37:22;0.10;;;0.10;;
14100;SDS011;7127;49.372;8.166;2023-08-06T10:39:50;0.37;;;0.30;;
14100;SDS011;7127;49.372;8.166;2023-08-06T10:42:22;0.10;;;0.10;;
14100;SDS011;7127;49.372;8.166;2023-08-06T10:45:13;0.30;;;0.20;;
14100;SDS011;7127;49.372;8.166;2023-08-06T10:50:26;0.20;;;0.20;;
14100;SDS011;7127;49.372;8.166;2023-08-06T10:52:53;0.10;;;0.10;;
14100;SDS011;7127;49.372;8.166;2023-08-06T10:55:24;0.10;;;0.10;;
14100;SDS011;7127;49.372;8.166;2023-08-06T10:57:53;0.20;;;0.20;;
14100;SDS011;7127;49.372;8.166;2023-08-06T11:00:21;0.20;;;0.20;;
14100;SDS011;7127;49.372;8.166;2023-08-06T11:02:49;0.20;;;0.20;;
14100;SDS011;7127;49.372;8.166;2023-08-06T11:05:16;0.20;;;0.20;;
14100;SDS011;7127;49.372;8.166;2023-08-06T11:07:43;0.20;;;0.20;;
14100;SDS011;7127;49.372;8.166;2023-08-06T11:10:13;0.33;;;0.30;;
14100;SDS011;7127;49.372;8.166;2023-08-06T11:12:40;0.40;;;0.37;;
14100;SDS011;7127;49.372;8.166;2023-08-06T11:15:09;0.30;;;0.30;;
14100;SDS011;7127;49.372;8.166;2023-08-06T11:17:37;1.07;;;0.63;;
14100;SDS011;7127;49.372;8.166;2023-08-06T11:20:06;0.30;;;0.30;;
14100;SDS011;7127;49.372;8.166;2023-08-06T11:22:34;0.60;;;0.60;;
14100;SDS011;7127;49.372;8.166;2023-08-06T11:25:02;0.40;;;0.40;;
14100;SDS011;7127;49.372;8.166;2023-08-06T11:27:29;0.30;;;0.30;;
14100;SDS011;7127;49.372;8.166;2023-08-06T11:29:56;0.30;;;0.30;;
14100;SDS011;7127;49.372;8.166;2023-08-06T11:32:25;0.87;;;0.40;;
14100;SDS011;7127;49.372;8.166;2023-08-06T11:34:52;0.50;;;0.50;;
14100;SDS011;7127;49.372;8.166;2023-08-06T11:37:20;0.53;;;0.50;;
14100;SDS011;7127;49.372;8.166;2023-08-06T11:39:49;0.53;;;0.50;;
14100;SDS011;7127;49.372;8.166;2023-08-06T11:42:16;0.53;;;0.50;;
14100;SDS011;7127;49.372;8.166;2023-08-06T11:44:43;0.47;;;0.47;;
14100;SDS011;7127;49.372;8.166;2023-08-06T11:47:12;1.03;;;0.83;;
14100;SDS011;7127;49.372;8.166;2023-08-06T11:49:43;0.50;;;0.50;;
14100;SDS011;7127;49.372;8.166;2023-08-06T11:52:10;0.93;;;0.73;;
14100;SDS011;7127;49.372;8.166;2023-08-06T11:54:40;0.50;;;0.50;;
14100;SDS011;7127;49.372;8.166;2023-08-06T11:57:07;0.63;;;0.63;;
14100;SDS011;7127;49.372;8.166;2023-08-06T11:59:34;0.57;;;0.50;;
14100;SDS011;7127;49.372;8.166;2023-08-06T12:02:03;0.40;;;0.40;;
14100;SDS011;7127;49.372;8.166;2023-08-06T12:04:31;0.50;;;0.50;;
14100;SDS011;7127;49.372;8.166;2023-08-06T12:07:18;0.73;;;0.60;;
14100;SDS011;7127;49.372;8.166;2023-08-06T12:09:45;0.60;;;0.50;;
14100;SDS011;7127;49.372;8.166;2023-08-06T12:12:12;0.93;;;0.60;;
14100;SDS011;7127;49.372;8.166;2023-08-06T12:14:39;0.50;;;0.40;;
14100;SDS011;7127;49.372;8.166;2023-08-06T12:17:05;0.70;;;0.37;;
14100;SDS011;7127;49.372;8.166;2023-08-06T12:19:33;0.17;;;0.17;;
14100;SDS011;7127;49.372;8.166;2023-08-06T12:22:00;0.30;;;0.30;;
14100;SDS011;7127;49.372;8.166;2023-08-06T12:24:29;0.40;;;0.40;;
14100;SDS011;7127;49.372;8.166;2023-08-06T12:26:57;0.37;;;0.37;;
14100;SDS011;7127;49.372;8.166;2023-08-06T12:29:24;0.20;;;0.20;;
14100;SDS011;7127;49.372;8.166;2023-08-06T12:31:53;0.20;;;0.20;;
14100;SDS011;7127;49.372;8.166;2023-08-06T12:34:20;0.63;;;0.53;;
14100;SDS011;7127;49.372;8.166;2023-08-06T12:36:47;0.40;;;0.40;;
14100;SDS011;7127;49.372;8.166;2023-08-06T12:39:13;0.40;;;0.30;;
14100;SDS011;7127;49.372;8.166;2023-08-06T12:41:42;0.60;;;0.50;;
14100;SDS011;7127;49.372;8.166;2023-08-06T12:44:11;0.40;;;0.40;;
14100;SDS011;7127;49.372;8.166;2023-08-06T12:46:37;0.73;;;0.50;;
14100;SDS011;7127;49.372;8.166;2023-08-06T12:49:04;0.40;;;0.40;;
14100;SDS011;7127;49.372;8.166;2023-08-06T12:51:31;0.77;;;0.40;;
14100;SDS011;7127;49.372;8.166;2023-08-06T12:53:59;0.30;;;0.30;;
14100;SDS011;7127;49.372;8.166;2023-08-06T12:56:26;1.87;;;0.53;;
14100;SDS011;7127;49.372;8.166;2023-08-06T12:58:55;1.00;;;0.70;;
14100;SDS011;7127;49.372;8.166;2023-08-06T13:01:22;1.00;;;0.60;;
14100;SDS011;7127;49.372;8.166;2023-08-06T13:03:49;0.93;;;0.50;;
14100;SDS011;7127;49.372;8.166;2023-08-06T13:06:16;0.33;;;0.33;;
14100;SDS011;7127;49.372;8.166;2023-08-06T13:08:42;0.27;;;0.27;;
14100;SDS011;7127;49.372;8.166;2023-08-06T13:11:09;0.60;;;0.60;;
14100;SDS011;7127;49.372;8.166;2023-08-06T13:13:36;0.40;;;0.40;;
14100;SDS011;7127;49.372;8.166;2023-08-06T13:16:05;0.57;;;0.50;;
14100;SDS011;7127;49.372;8.166;2023-08-06T13:18:31;0.40;;;0.40;;
14100;SDS011;7127;49.372;8.166;2023-08-06T13:20:58;0.37;;;0.37;;
14100;SDS011;7127;49.372;8.166;2023-08-06T13:23:25;0.50;;;0.50;;
14100;SDS011;7127;49.372;8.166;2023-08-06T13:25:52;0.33;;;0.30;;
14100;SDS011;7127;49.372;8.166;2023-08-06T13:28:20;0.60;;;0.40;;
14100;SDS011;7127;49.372;8.166;2023-08-06T13:30:47;0.20;;;0.20;;
14100;SDS011;7127;49.372;8.166;2023-08-06T13:33:15;0.40;;;0.37;;
14100;SDS011;7127;49.372;8.166;2023-08-06T13:35:42;0.53;;;0.30;;
14100;SDS011;7127;49.372;8.166;2023-08-06T13:38:09;0.57;;;0.40;;
14100;SDS011;7127;49.372;8.166;2023-08-06T13:40:36;0.20;;;0.20;;
14100;SDS011;7127;49.372;8.166;2023-08-06T13:43:03;0.53;;;0.40;;
14100;SDS011;7127;49.372;8.166;2023-08-06T13:45:29;0.30;;;0.30;;
14100;SDS011;7127;49.372;8.166;2023-08-06T13:47:59;0.50;;;0.50;;
14100;SDS011;7127;49.372;8.166;2023-08-06T13:50:27;0.40;;;0.37;;
14100;SDS011;7127;49.372;8.166;2023-08-06T13:52:54;0.43;;;0.43;;
14100;SDS011;7127;49.372;8.166;2023-08-06T13:55:21;0.20;;;0.20;;
14100;SDS011;7127;49.372;8.166;2023-08-06T13:57:48;0.30;;;0.30;;
14100;SDS011;7127;49.372;8.166;2023-08-06T14:00:16;0.30;;;0.30;;
14100;SDS011;7127;49.372;8.166;2023-08-06T14:02:43;0.40;;;0.40;;
14100;SDS011;7127;49.372;8.166;2023-08-06T14:05:10;0.30;;;0.30;;
14100;SDS011;7127;49.372;8.166;2023-08-06T14:07:38;0.40;;;0.40;;
14100;SDS011;7127;49.372;8.166;2023-08-06T14:10:05;0.30;;;0.30;;
14100;SDS011;7127;49.372;8.166;2023-08-06T14:12:34;0.30;;;0.30;;
14100;SDS011;7127;49.372;8.166;2023-08-06T14:15:01;0.30;;;0.30;;
14100;SDS011;7127;49.372;8.166;2023-08-06T14:17:29;0.50;;;0.50;;
14100;SDS011;7127;49.372;8.166;2023-08-06T14:19:56;0.50;;;0.30;;
14100;SDS011;7127;49.372;8.166;2023-08-06T14:22:22;0.20;;;0.20;;
14100;SDS011;7127;49.372;8.166;2023-08-06T14:24:51;0.40;;;0.30;;
14100;SDS011;7127;49.372;8.166;2023-08-06T14:27:18;0.50;;;0.50;;
14100;SDS011;7127;49.372;8.166;2023-08-06T14:29:45;0.77;;;0.30;;
14100;SDS011;7127;49.372;8.166;2023-08-06T14:32:12;0.13;;;0.13;;
14100;SDS011;7127;49.372;8.166;2023-08-06T14:34:39;0.50;;;0.20;;
14100;SDS011;7127;49.372;8.166;2023-08-06T14:37:06;0.70;;;0.50;;
14100;SDS011;7127;49.372;8.166;2023-08-06T14:39:33;0.30;;;0.30;;
14100;SDS011;7127;49.372;8.166;2023-08-06T14:42:01;0.60;;;0.50;;
14100;SDS011;7127;49.372;8.166;2023-08-06T14:44:29;0.47;;;0.47;;
14100;SDS011;7127;49.372;8.166;2023-08-06T14:46:56;0.43;;;0.30;;
14100;SDS011;7127;49.372;8.166;2023-08-06T14:49:23;0.30;;;0.30;;
14100;SDS011;7127;49.372;8.166;2023-08-06T14:51:50;0.30;;;0.30;;
14100;SDS011;7127;49.372;8.166;2023-08-06T14:54:17;0.20;;;0.20;;
14100;SDS011;7127;49.372;8.166;2023-08-06T14:56:44;0.40;;;0.40;;
14100;SDS011;7127;49.372;8.166;2023-08-06T14:59:12;0.57;;;0.40;;
14100;SDS011;7127;49.372;8.166;2023-08-06T15:01:39;0.50;;;0.50;;
14100;SDS011;7127;49.372;8.166;2023-08-06T15:04:06;3.60;;;0.43;;
14100;SDS011;7127;49.372;8.166;2023-08-06T15:06:33;0.50;;;0.50;;